sensor_id;sensor_type;location;lat;lon;timestamp;pressure;altitude;pressure_sealevel;temperature;humidity
36630;BME280;36256;42.154;23.002;2023-02-18T00:01:02;98158.25;;;0.59;88.62
36630;BME280;36256;42.154;23.002;2023-02-18T00:03:29;98144.09;;;0.61;88.48
36630;BME280;36256;42.154;23.002;2023-02-18T00:05:56;98140.28;;;0.69;89.19
36630;BME280;36256;42.154;23.002;2023-02-18T00:08:23;98139.53;;;0.72;88.36
36630;BME280;36256;42.154;23.002;2023-02-18T00:10:49;98135.19;;;0.71;89.38
36630;BME280;36256;42.154;23.002;2023-02-18T00:13:16;98144.53;;;0.63;89.26
36630;BME280;36256;42.154;23.002;2023-02-18T00:15:43;98144.09;;;0.61;88.74
36630;BME280;36256;42.154;23.002;2023-02-18T00:18:10;98145.69;;;0.62;89.77
36630;BME280;36256;42.154;23.002;2023-02-18T00:20:38;98141.88;;;0.70;89.83
36630;BME280;36256;42.154;23.002;2023-02-18T00:23:05;98128.38;;;0.65;87.99
36630;BME280;36256;42.154;23.002;2023-02-18T00:25:31;98147.28;;;0.63;91.85
36630;BME280;36256;42.154;23.002;2023-02-18T00:27:58;98144.81;;;0.58;90.34
36630;BME280;36256;42.154;23.002;2023-02-18T00:30:25;98136.41;;;0.51;90.68
36630;BME280;36256;42.154;23.002;2023-02-18T00:32:53;98135.25;;;0.52;90.99
36630;BME280;36256;42.154;23.002;2023-02-18T00:35:20;98134.03;;;0.49;91.82
36630;BME280;36256;42.154;23.002;2023-02-18T00:37:50;98126.41;;;0.43;91.81
36630;BME280;36256;42.154;23.002;2023-02-18T00:40:16;98121.66;;;0.40;92.49
36630;BME280;36256;42.154;23.002;2023-02-18T00:42:43;98123.84;;;0.53;91.57
36630;BME280;36256;42.154;23.002;2023-02-18T00:45:09;98121.50;;;0.55;91.03
36630;BME280;36256;42.154;23.002;2023-02-18T00:47:36;98117.06;;;0.51;90.94
36630;BME280;36256;42.154;23.002;2023-02-18T00:50:03;98109.16;;;0.49;90.09
36630;BME280;36256;42.154;23.002;2023-02-18T00:52:29;98097.31;;;0.49;90.16
36630;BME280;36256;42.154;23.002;2023-02-18T00:54:56;98089.66;;;0.39;91.45
36630;BME280;36256;42.154;23.002;2023-02-18T00:57:23;98082.22;;;0.43;93.21
36630;BME280;36256;42.154;23.002;2023-02-18T00:59:49;98086.53;;;0.40;92.78
36630;BME280;36256;42.154;23.002;2023-02-18T01:02:16;98085.81;;;0.43;91.31
36630;BME280;36256;42.154;23.002;2023-02-18T01:04:43;98079.03;;;0.41;90.15
36630;BME280;36256;42.154;23.002;2023-02-18T01:07:10;98083.16;;;0.28;90.53
36630;BME280;36256;42.154;23.002;2023-02-18T01:09:36;98083.75;;;0.18;90.76
36630;BME280;36256;42.154;23.002;2023-02-18T01:12:03;98073.78;;;0.10;90.00
36630;BME280;36256;42.154;23.002;2023-02-18T01:14:30;98079.28;;;0.10;89.49
36630;BME280;36256;42.154;23.002;2023-02-18T01:16:57;98065.72;;;0.01;91.09
36630;BME280;36256;42.154;23.002;2023-02-18T01:19:23;98069.53;;;-0.07;90.02
36630;BME280;36256;42.154;23.002;2023-02-18T01:21:50;98065.94;;;-0.30;92.24
36630;BME280;36256;42.154;23.002;2023-02-18T01:24:16;98060.78;;;-0.32;91.66
36630;BME280;36256;42.154;23.002;2023-02-18T01:26:43;98066.88;;;-0.42;91.36
36630;BME280;36256;42.154;23.002;2023-02-18T01:29:09;98060.22;;;-0.41;90.17
36630;BME280;36256;42.154;23.002;2023-02-18T01:31:36;98050.63;;;-0.47;91.10
36630;BME280;36256;42.154;23.002;2023-02-18T01:34:03;98048.44;;;-0.38;90.18
36630;BME280;36256;42.154;23.002;2023-02-18T01:36:30;98046.09;;;-0.36;89.18
36630;BME280;36256;42.154;23.002;2023-02-18T01:38:56;98043.44;;;-0.32;90.82
36630;BME280;36256;42.154;23.002;2023-02-18T01:41:23;98050.69;;;-0.24;91.36
36630;BME280;36256;42.154;23.002;2023-02-18T01:44:19;98050.19;;;-0.30;91.67
36630;BME280;36256;42.154;23.002;2023-02-18T01:46:46;98049.00;;;-0.29;90.61
36630;BME280;36256;42.154;23.002;2023-02-18T01:49:19;98056.41;;;-0.33;91.02
36630;BME280;36256;42.154;23.002;2023-02-18T01:51:53;98061.50;;;-0.35;90.61
36630;BME280;36256;42.154;23.002;2023-02-18T01:54:26;98063.34;;;-0.42;88.49
36630;BME280;36256;42.154;23.002;2023-02-18T01:57:05;98063.34;;;-0.42;90.55
36630;BME280;36256;42.154;23.002;2023-02-18T01:59:36;98067.72;;;-0.38;89.85
36630;BME280;36256;42.154;23.002;2023-02-18T02:02:07;98068.59;;;-0.34;90.20
36630;BME280;36256;42.154;23.002;2023-02-18T02:04:36;98067.31;;;-0.40;90.62
36630;BME280;36256;42.154;23.002;2023-02-18T02:07:03;98073.13;;;-0.45;90.63
36630;BME280;36256;42.154;23.002;2023-02-18T02:09:31;98072.75;;;-0.43;89.94
36630;BME280;36256;42.154;23.002;2023-02-18T02:15:05;98078.47;;;-0.33;95.62
36630;BME280;36256;42.154;23.002;2023-02-18T02:31:52;98083.13;;;-0.37;92.32
36630;BME280;36256;42.154;23.002;2023-02-18T02:43:12;98074.56;;;-0.70;95.21
36630;BME280;36256;42.154;23.002;2023-02-18T02:46:08;98086.75;;;-0.71;95.68
36630;BME280;36256;42.154;23.002;2023-02-18T02:52:43;98073.94;;;-0.98;96.18
36630;BME280;36256;42.154;23.002;2023-02-18T02:54:51;98067.94;;;-1.04;96.42
36630;BME280;36256;42.154;23.002;2023-02-18T02:59:48;98071.41;;;-1.07;98.23
36630;BME280;36256;42.154;23.002;2023-02-18T03:10:45;98077.88;;;-1.65;100.00
36630;BME280;36256;42.154;23.002;2023-02-18T03:13:35;98070.84;;;-1.47;99.38
36630;BME280;36256;42.154;23.002;2023-02-18T03:16:27;98073.41;;;-1.38;99.47
36630;BME280;36256;42.154;23.002;2023-02-18T03:18:58;98075.59;;;-1.28;99.60
36630;BME280;36256;42.154;23.002;2023-02-18T03:24:16;98068.22;;;-1.24;98.74
36630;BME280;36256;42.154;23.002;2023-02-18T03:26:47;98074.16;;;-1.22;97.30
36630;BME280;36256;42.154;23.002;2023-02-18T03:29:17;98069.47;;;-1.22;96.64
36630;BME280;36256;42.154;23.002;2023-02-18T03:31:48;98063.72;;;-1.32;96.28
36630;BME280;36256;42.154;23.002;2023-02-18T03:34:33;98063.56;;;-1.39;96.97
36630;BME280;36256;42.154;23.002;2023-02-18T03:37:01;98065.16;;;-1.38;96.21
36630;BME280;36256;42.154;23.002;2023-02-18T03:39:29;98068.34;;;-1.36;95.79
36630;BME280;36256;42.154;23.002;2023-02-18T03:41:56;98073.66;;;-1.43;96.57
36630;BME280;36256;42.154;23.002;2023-02-18T03:44:24;98077.03;;;-1.34;95.42
36630;BME280;36256;42.154;23.002;2023-02-18T03:46:51;98077.91;;;-1.30;96.15
36630;BME280;36256;42.154;23.002;2023-02-18T03:49:18;98083.69;;;-1.20;94.19
36630;BME280;36256;42.154;23.002;2023-02-18T03:51:44;98092.91;;;-1.12;93.15
36630;BME280;36256;42.154;23.002;2023-02-18T03:54:11;98088.72;;;-1.06;94.08
36630;BME280;36256;42.154;23.002;2023-02-18T03:56:40;98101.50;;;-0.98;94.28
36630;BME280;36256;42.154;23.002;2023-02-18T03:59:08;98083.22;;;-1.06;92.12
36630;BME280;36256;42.154;23.002;2023-02-18T04:01:34;98103.25;;;-0.90;95.16
36630;BME280;36256;42.154;23.002;2023-02-18T04:04:01;98111.47;;;-0.74;99.31
36630;BME280;36256;42.154;23.002;2023-02-18T04:06:28;98120.25;;;-0.69;98.66
36630;BME280;36256;42.154;23.002;2023-02-18T04:08:55;98123.06;;;-0.65;96.44
36630;BME280;36256;42.154;23.002;2023-02-18T04:11:22;98118.91;;;-0.59;94.01
36630;BME280;36256;42.154;23.002;2023-02-18T04:13:49;98126.06;;;-0.55;94.51
36630;BME280;36256;42.154;23.002;2023-02-18T04:16:15;98130.34;;;-0.57;94.47
36630;BME280;36256;42.154;23.002;2023-02-18T04:18:42;98124.53;;;-0.52;93.26
36630;BME280;36256;42.154;23.002;2023-02-18T04:21:08;98136.31;;;-0.55;93.04
36630;BME280;36256;42.154;23.002;2023-02-18T04:23:35;98143.13;;;-0.49;93.42
36630;BME280;36256;42.154;23.002;2023-02-18T04:26:02;98148.56;;;-0.53;92.14
36630;BME280;36256;42.154;23.002;2023-02-18T04:28:28;98135.94;;;-0.54;92.17
36630;BME280;36256;42.154;23.002;2023-02-18T04:30:55;98134.00;;;-0.53;91.39
36630;BME280;36256;42.154;23.002;2023-02-18T04:33:21;98137.88;;;-0.54;90.84
36630;BME280;36256;42.154;23.002;2023-02-18T04:35:48;98135.34;;;-0.63;90.68
36630;BME280;36256;42.154;23.002;2023-02-18T04:38:15;98124.88;;;-0.73;93.85
36630;BME280;36256;42.154;23.002;2023-02-18T04:40:41;98129.47;;;-0.96;93.95
36630;BME280;36256;42.154;23.002;2023-02-18T04:43:08;98131.19;;;-1.07;95.42
36630;BME280;36256;42.154;23.002;2023-02-18T04:45:34;98131.81;;;-1.14;95.33
36630;BME280;36256;42.154;23.002;2023-02-18T04:48:01;98127.47;;;-1.15;93.46
36630;BME280;36256;42.154;23.002;2023-02-18T04:50:28;98135.00;;;-1.12;94.09
36630;BME280;36256;42.154;23.002;2023-02-18T04:52:54;98129.78;;;-1.17;94.21
36630;BME280;36256;42.154;23.002;2023-02-18T04:55:21;98131.03;;;-1.14;94.71
36630;BME280;36256;42.154;23.002;2023-02-18T04:57:47;98137.25;;;-1.17;97.72
36630;BME280;36256;42.154;23.002;2023-02-18T05:00:16;98134.84;;;-1.19;99.07
36630;BME280;36256;42.154;23.002;2023-02-18T05:02:44;98138.31;;;-1.22;99.48
36630;BME280;36256;42.154;23.002;2023-02-18T05:05:12;98145.25;;;-1.12;97.60
36630;BME280;36256;42.154;23.002;2023-02-18T05:07:39;98130.38;;;-1.08;96.96
36630;BME280;36256;42.154;23.002;2023-02-18T05:10:09;98143.06;;;-1.03;96.47
36630;BME280;36256;42.154;23.002;2023-02-18T05:12:36;98139.19;;;-1.02;96.81
36630;BME280;36256;42.154;23.002;2023-02-18T05:15:03;98141.19;;;-0.99;94.81
36630;BME280;36256;42.154;23.002;2023-02-18T05:17:30;98137.75;;;-0.96;93.57
36630;BME280;36256;42.154;23.002;2023-02-18T05:19:56;98141.75;;;-0.94;92.37
36630;BME280;36256;42.154;23.002;2023-02-18T05:22:23;98141.38;;;-0.92;92.45
36630;BME280;36256;42.154;23.002;2023-02-18T05:24:50;98145.88;;;-0.84;93.20
36630;BME280;36256;42.154;23.002;2023-02-18T05:27:16;98145.81;;;-0.88;94.23
36630;BME280;36256;42.154;23.002;2023-02-18T05:29:43;98124.16;;;-1.05;94.03
36630;BME280;36256;42.154;23.002;2023-02-18T05:32:10;98128.19;;;-1.18;94.27
36630;BME280;36256;42.154;23.002;2023-02-18T05:34:36;98150.03;;;-1.09;94.91
36630;BME280;36256;42.154;23.002;2023-02-18T05:37:03;98148.25;;;-1.17;94.91
36630;BME280;36256;42.154;23.002;2023-02-18T05:39:29;98144.81;;;-1.30;96.06
36630;BME280;36256;42.154;23.002;2023-02-18T05:41:56;98142.50;;;-1.28;97.16
36630;BME280;36256;42.154;23.002;2023-02-18T05:44:22;98146.41;;;-1.29;97.15
36630;BME280;36256;42.154;23.002;2023-02-18T05:46:57;98143.44;;;-1.20;93.93
36630;BME280;36256;42.154;23.002;2023-02-18T05:49:24;98160.66;;;-1.08;95.01
36630;BME280;36256;42.154;23.002;2023-02-18T05:51:51;98153.66;;;-1.05;94.37
36630;BME280;36256;42.154;23.002;2023-02-18T05:54:17;98154.28;;;-0.96;95.27
36630;BME280;36256;42.154;23.002;2023-02-18T05:56:44;98155.31;;;-0.85;93.30
36630;BME280;36256;42.154;23.002;2023-02-18T05:59:10;98159.47;;;-0.75;91.59
36630;BME280;36256;42.154;23.002;2023-02-18T06:01:37;98167.72;;;-0.60;94.11
36630;BME280;36256;42.154;23.002;2023-02-18T06:04:04;98169.47;;;-0.52;98.40
36630;BME280;36256;42.154;23.002;2023-02-18T06:06:31;98163.66;;;-0.47;96.33
36630;BME280;36256;42.154;23.002;2023-02-18T06:08:57;98166.88;;;-0.45;94.69
36630;BME280;36256;42.154;23.002;2023-02-18T06:11:24;98176.72;;;-0.44;94.14
36630;BME280;36256;42.154;23.002;2023-02-18T06:13:50;98181.09;;;-0.43;94.38
36630;BME280;36256;42.154;23.002;2023-02-18T06:16:17;98187.50;;;-0.54;95.94
36630;BME280;36256;42.154;23.002;2023-02-18T06:18:44;98184.50;;;-0.65;97.67
36630;BME280;36256;42.154;23.002;2023-02-18T06:21:10;98173.22;;;-0.60;97.45
36630;BME280;36256;42.154;23.002;2023-02-18T06:23:37;98175.13;;;-0.45;95.95
36630;BME280;36256;42.154;23.002;2023-02-18T06:26:03;98168.19;;;-0.39;96.04
36630;BME280;36256;42.154;23.002;2023-02-18T06:28:30;98177.25;;;-0.38;96.06
36630;BME280;36256;42.154;23.002;2023-02-18T06:30:57;98178.47;;;-0.36;95.77
36630;BME280;36256;42.154;23.002;2023-02-18T06:33:23;98192.13;;;-0.24;95.66
36630;BME280;36256;42.154;23.002;2023-02-18T06:35:59;98190.38;;;-0.13;95.63
36630;BME280;36256;42.154;23.002;2023-02-18T06:38:26;98189.09;;;0.00;94.85
36630;BME280;36256;42.154;23.002;2023-02-18T06:40:53;98172.97;;;0.03;94.50
36630;BME280;36256;42.154;23.002;2023-02-18T06:43:20;98175.72;;;0.22;94.66
36630;BME280;36256;42.154;23.002;2023-02-18T06:45:47;98173.00;;;0.44;93.64
36630;BME280;36256;42.154;23.002;2023-02-18T06:48:14;98166.91;;;0.58;92.17
36630;BME280;36256;42.154;23.002;2023-02-18T06:50:42;98174.06;;;0.59;90.97
36630;BME280;36256;42.154;23.002;2023-02-18T06:53:09;98181.53;;;0.58;90.68
36630;BME280;36256;42.154;23.002;2023-02-18T06:55:36;98174.91;;;0.63;91.93
36630;BME280;36256;42.154;23.002;2023-02-18T06:58:03;98178.34;;;0.79;91.85
36630;BME280;36256;42.154;23.002;2023-02-18T07:00:30;98181.03;;;0.98;91.47
36630;BME280;36256;42.154;23.002;2023-02-18T07:02:57;98177.84;;;0.96;89.79
36630;BME280;36256;42.154;23.002;2023-02-18T07:05:24;98164.41;;;0.95;91.51
36630;BME280;36256;42.154;23.002;2023-02-18T07:07:50;98166.59;;;1.08;93.45
36630;BME280;36256;42.154;23.002;2023-02-18T07:10:17;98161.13;;;1.38;92.63
36630;BME280;36256;42.154;23.002;2023-02-18T07:12:44;98156.03;;;1.70;90.93
36630;BME280;36256;42.154;23.002;2023-02-18T07:15:11;98155.56;;;1.94;89.11
36630;BME280;36256;42.154;23.002;2023-02-18T07:17:38;98161.84;;;2.24;87.76
36630;BME280;36256;42.154;23.002;2023-02-18T07:20:05;98162.94;;;2.49;85.69
36630;BME280;36256;42.154;23.002;2023-02-18T07:22:31;98167.34;;;2.57;84.66
36630;BME280;36256;42.154;23.002;2023-02-18T07:24:58;98149.91;;;2.53;84.14
36630;BME280;36256;42.154;23.002;2023-02-18T07:27:24;98151.34;;;2.40;84.71
36630;BME280;36256;42.154;23.002;2023-02-18T07:29:52;98138.19;;;2.30;85.25
36630;BME280;36256;42.154;23.002;2023-02-18T07:32:19;98165.53;;;2.35;85.57
36630;BME280;36256;42.154;23.002;2023-02-18T07:34:45;98167.16;;;2.39;86.38
36630;BME280;36256;42.154;23.002;2023-02-18T07:37:12;98159.75;;;2.47;85.32
36630;BME280;36256;42.154;23.002;2023-02-18T07:39:39;98149.84;;;2.50;85.65
36630;BME280;36256;42.154;23.002;2023-02-18T07:42:06;98162.78;;;2.75;83.94
36630;BME280;36256;42.154;23.002;2023-02-18T07:44:33;98154.84;;;2.74;83.49
36630;BME280;36256;42.154;23.002;2023-02-18T07:47:01;98150.09;;;2.74;83.71
36630;BME280;36256;42.154;23.002;2023-02-18T07:49:28;98137.81;;;2.75;84.53
36630;BME280;36256;42.154;23.002;2023-02-18T07:51:54;98124.09;;;2.89;84.13
36630;BME280;36256;42.154;23.002;2023-02-18T07:54:21;98131.34;;;3.04;82.76
36630;BME280;36256;42.154;23.002;2023-02-18T07:56:48;98139.00;;;3.22;82.35
36630;BME280;36256;42.154;23.002;2023-02-18T07:59:15;98144.34;;;3.48;81.87
36630;BME280;36256;42.154;23.002;2023-02-18T08:01:41;98141.34;;;3.81;80.31
36630;BME280;36256;42.154;23.002;2023-02-18T08:04:10;98142.28;;;4.13;78.28
36630;BME280;36256;42.154;23.002;2023-02-18T08:06:39;98130.44;;;4.37;76.25
36630;BME280;36256;42.154;23.002;2023-02-18T08:09:06;98126.50;;;4.45;75.36
36630;BME280;36256;42.154;23.002;2023-02-18T08:11:33;98124.13;;;4.47;75.04
36630;BME280;36256;42.154;23.002;2023-02-18T08:14:00;98115.41;;;4.45;74.93
36630;BME280;36256;42.154;23.002;2023-02-18T08:16:27;98113.00;;;4.54;75.10
36630;BME280;36256;42.154;23.002;2023-02-18T08:18:54;98097.13;;;4.51;74.89
36630;BME280;36256;42.154;23.002;2023-02-18T08:21:23;98122.53;;;4.57;75.84
36630;BME280;36256;42.154;23.002;2023-02-18T08:23:50;98108.25;;;4.58;76.27
36630;BME280;36256;42.154;23.002;2023-02-18T08:26:17;98101.13;;;4.82;75.52
36630;BME280;36256;42.154;23.002;2023-02-18T08:28:44;98101.53;;;5.02;73.46
36630;BME280;36256;42.154;23.002;2023-02-18T08:31:22;98092.31;;;5.47;72.16
36630;BME280;36256;42.154;23.002;2023-02-18T08:33:52;98083.41;;;6.01;70.71
36630;BME280;36256;42.154;23.002;2023-02-18T08:36:20;98073.78;;;6.13;68.99
36630;BME280;36256;42.154;23.002;2023-02-18T08:38:47;98066.88;;;6.39;68.22
36630;BME280;36256;42.154;23.002;2023-02-18T08:41:14;98059.19;;;6.60;66.12
36630;BME280;36256;42.154;23.002;2023-02-18T08:43:41;98062.03;;;7.01;65.43
36630;BME280;36256;42.154;23.002;2023-02-18T08:46:07;98056.94;;;7.33;63.92
36630;BME280;36256;42.154;23.002;2023-02-18T08:48:41;98056.09;;;7.73;62.02
36630;BME280;36256;42.154;23.002;2023-02-18T08:51:16;98049.44;;;8.24;59.48
36630;BME280;36256;42.154;23.002;2023-02-18T08:53:44;98028.31;;;7.93;59.15
36630;BME280;36256;42.154;23.002;2023-02-18T08:56:14;98049.69;;;7.76;59.79
36630;BME280;36256;42.154;23.002;2023-02-18T08:58:42;98062.88;;;7.35;60.42
36630;BME280;36256;42.154;23.002;2023-02-18T09:01:10;98061.09;;;7.55;60.58
36630;BME280;36256;42.154;23.002;2023-02-18T09:03:38;98056.13;;;9.10;56.85
36630;BME280;36256;42.154;23.002;2023-02-18T09:06:06;98047.34;;;9.74;55.09
36630;BME280;36256;42.154;23.002;2023-02-18T09:08:32;98044.16;;;9.52;53.41
36630;BME280;36256;42.154;23.002;2023-02-18T09:11:01;98040.25;;;9.46;54.51
36630;BME280;36256;42.154;23.002;2023-02-18T09:13:31;98049.94;;;10.24;52.65
36630;BME280;36256;42.154;23.002;2023-02-18T09:16:17;98041.25;;;11.35;50.36
36630;BME280;36256;42.154;23.002;2023-02-18T09:18:45;98032.97;;;11.89;49.57
36630;BME280;36256;42.154;23.002;2023-02-18T09:21:13;98040.16;;;12.18;46.87
36630;BME280;36256;42.154;23.002;2023-02-18T09:23:41;98075.81;;;12.63;45.92
36630;BME280;36256;42.154;23.002;2023-02-18T09:26:10;98081.19;;;12.70;47.19
36630;BME280;36256;42.154;23.002;2023-02-18T09:28:39;98063.84;;;13.34;44.53
36630;BME280;36256;42.154;23.002;2023-02-18T09:31:09;98051.22;;;12.50;45.40
36630;BME280;36256;42.154;23.002;2023-02-18T09:33:39;98050.97;;;12.32;45.84
36630;BME280;36256;42.154;23.002;2023-02-18T09:36:06;98046.78;;;11.83;45.70
36630;BME280;36256;42.154;23.002;2023-02-18T09:38:33;98074.25;;;11.47;47.20
36630;BME280;36256;42.154;23.002;2023-02-18T09:41:02;98069.91;;;11.30;46.91
36630;BME280;36256;42.154;23.002;2023-02-18T09:43:38;98064.00;;;11.40;47.16
36630;BME280;36256;42.154;23.002;2023-02-18T09:46:39;98057.59;;;11.40;47.90
36630;BME280;36256;42.154;23.002;2023-02-18T09:49:13;98050.75;;;11.25;46.82
36630;BME280;36256;42.154;23.002;2023-02-18T09:51:40;98055.22;;;10.74;48.29
36630;BME280;36256;42.154;23.002;2023-02-18T09:54:11;98057.56;;;10.23;50.03
36630;BME280;36256;42.154;23.002;2023-02-18T09:56:40;98057.56;;;10.04;51.39
36630;BME280;36256;42.154;23.002;2023-02-18T09:59:13;98053.16;;;9.83;52.57
36630;BME280;36256;42.154;23.002;2023-02-18T10:01:42;98043.16;;;10.02;51.38
36630;BME280;36256;42.154;23.002;2023-02-18T10:06:39;98037.13;;;10.23;51.90
36630;BME280;36256;42.154;23.002;2023-02-18T10:09:19;98040.50;;;10.34;50.78
36630;BME280;36256;42.154;23.002;2023-02-18T10:11:57;98034.72;;;10.41;51.22
36630;BME280;36256;42.154;23.002;2023-02-18T10:14:26;98020.69;;;10.41;49.79
36630;BME280;36256;42.154;23.002;2023-02-18T10:16:52;98031.16;;;10.41;50.69
36630;BME280;36256;42.154;23.002;2023-02-18T10:19:30;98024.03;;;10.36;50.11
36630;BME280;36256;42.154;23.002;2023-02-18T10:22:00;98023.31;;;10.32;49.42
36630;BME280;36256;42.154;23.002;2023-02-18T10:24:31;98011.56;;;10.37;49.06
36630;BME280;36256;42.154;23.002;2023-02-18T10:26:59;98015.97;;;10.38;50.22
36630;BME280;36256;42.154;23.002;2023-02-18T10:29:26;98004.41;;;10.52;47.88
36630;BME280;36256;42.154;23.002;2023-02-18T10:32:03;97998.63;;;10.59;48.79
36630;BME280;36256;42.154;23.002;2023-02-18T10:34:53;97986.00;;;10.67;48.12
36630;BME280;36256;42.154;23.002;2023-02-18T10:37:49;97980.03;;;10.97;49.22
36630;BME280;36256;42.154;23.002;2023-02-18T10:51:28;97948.03;;;11.81;45.53
36630;BME280;36256;42.154;23.002;2023-02-18T10:53:56;97937.28;;;11.63;45.50
36630;BME280;36256;42.154;23.002;2023-02-18T10:56:37;97937.72;;;11.62;45.58
36630;BME280;36256;42.154;23.002;2023-02-18T11:01:36;97921.34;;;11.73;45.91
36630;BME280;36256;42.154;23.002;2023-02-18T11:04:11;97925.41;;;11.72;45.89
36630;BME280;36256;42.154;23.002;2023-02-18T11:06:44;97920.34;;;11.79;45.65
36630;BME280;36256;42.154;23.002;2023-02-18T11:09:29;97912.75;;;11.93;44.93
36630;BME280;36256;42.154;23.002;2023-02-18T11:12:05;97907.13;;;12.05;45.03
36630;BME280;36256;42.154;23.002;2023-02-18T11:14:40;97900.91;;;12.10;44.29
36630;BME280;36256;42.154;23.002;2023-02-18T11:17:26;97898.09;;;11.98;44.36
36630;BME280;36256;42.154;23.002;2023-02-18T11:20:00;97887.97;;;12.13;44.76
36630;BME280;36256;42.154;23.002;2023-02-18T11:22:30;97889.75;;;12.44;44.11
36630;BME280;36256;42.154;23.002;2023-02-18T11:25:00;97878.81;;;12.59;44.58
36630;BME280;36256;42.154;23.002;2023-02-18T11:30:13;97862.00;;;12.81;44.22
36630;BME280;36256;42.154;23.002;2023-02-18T11:32:42;97861.63;;;12.91;44.01
36630;BME280;36256;42.154;23.002;2023-02-18T11:35:20;97854.38;;;13.03;44.00
36630;BME280;36256;42.154;23.002;2023-02-18T11:37:48;97852.84;;;13.23;43.49
36630;BME280;36256;42.154;23.002;2023-02-18T11:42:51;97849.41;;;13.28;43.28
36630;BME280;36256;42.154;23.002;2023-02-18T11:45:31;97846.22;;;13.17;43.58
36630;BME280;36256;42.154;23.002;2023-02-18T11:48:01;97845.63;;;13.22;43.85
36630;BME280;36256;42.154;23.002;2023-02-18T11:50:32;97848.09;;;13.20;43.03
36630;BME280;36256;42.154;23.002;2023-02-18T11:52:59;97839.41;;;13.27;43.18
36630;BME280;36256;42.154;23.002;2023-02-18T11:55:28;97828.31;;;13.33;43.26
36630;BME280;36256;42.154;23.002;2023-02-18T11:57:57;97833.09;;;13.45;43.25
36630;BME280;36256;42.154;23.002;2023-02-18T12:00:45;97827.72;;;13.60;43.71
36630;BME280;36256;42.154;23.002;2023-02-18T12:03:32;97829.56;;;13.84;42.82
36630;BME280;36256;42.154;23.002;2023-02-18T12:06:10;97812.03;;;13.89;42.52
36630;BME280;36256;42.154;23.002;2023-02-18T12:08:48;97796.94;;;13.83;42.18
36630;BME280;36256;42.154;23.002;2023-02-18T12:11:27;97794.69;;;14.00;42.08
36630;BME280;36256;42.154;23.002;2023-02-18T12:13:57;97791.44;;;14.19;41.52
36630;BME280;36256;42.154;23.002;2023-02-18T12:22:02;97778.97;;;14.48;39.91
36630;BME280;36256;42.154;23.002;2023-02-18T12:39:02;97756.38;;;15.02;41.55
36630;BME280;36256;42.154;23.002;2023-02-18T13:09:57;97739.88;;;15.79;37.31
36630;BME280;36256;42.154;23.002;2023-02-18T13:15:13;97727.59;;;15.82;37.39
36630;BME280;36256;42.154;23.002;2023-02-18T13:17:43;97719.41;;;15.84;37.88
36630;BME280;36256;42.154;23.002;2023-02-18T13:20:20;97707.78;;;15.82;37.35
36630;BME280;36256;42.154;23.002;2023-02-18T13:22:49;97707.84;;;15.73;37.28
36630;BME280;36256;42.154;23.002;2023-02-18T13:25:17;97703.41;;;15.71;36.76
36630;BME280;36256;42.154;23.002;2023-02-18T13:27:58;97702.19;;;15.63;37.37
36630;BME280;36256;42.154;23.002;2023-02-18T13:30:42;97706.75;;;15.61;36.69
36630;BME280;36256;42.154;23.002;2023-02-18T13:35:53;97708.78;;;15.69;36.65
36630;BME280;36256;42.154;23.002;2023-02-18T13:38:53;97703.91;;;15.70;36.61
36630;BME280;36256;42.154;23.002;2023-02-18T13:41:25;97703.13;;;15.69;36.36
36630;BME280;36256;42.154;23.002;2023-02-18T13:43:52;97701.56;;;15.68;36.34
36630;BME280;36256;42.154;23.002;2023-02-18T13:46:23;97698.28;;;15.61;36.80
36630;BME280;36256;42.154;23.002;2023-02-18T13:48:52;97698.06;;;15.73;36.74
36630;BME280;36256;42.154;23.002;2023-02-18T13:51:30;97700.25;;;15.79;36.40
36630;BME280;36256;42.154;23.002;2023-02-18T13:57:17;97691.88;;;15.84;36.63
36630;BME280;36256;42.154;23.002;2023-02-18T13:59:52;97688.44;;;15.80;36.45
36630;BME280;36256;42.154;23.002;2023-02-18T14:04:55;97680.22;;;15.91;36.27
36630;BME280;36256;42.154;23.002;2023-02-18T14:09:53;97678.19;;;15.92;36.12
36630;BME280;36256;42.154;23.002;2023-02-18T14:14:57;97688.22;;;15.93;35.69
36630;BME280;36256;42.154;23.002;2023-02-18T14:17:37;97681.53;;;15.81;36.24
36630;BME280;36256;42.154;23.002;2023-02-18T14:22:44;97679.81;;;15.84;36.02
36630;BME280;36256;42.154;23.002;2023-02-18T14:27:39;97683.13;;;16.06;35.98
36630;BME280;36256;42.154;23.002;2023-02-18T14:30:19;97673.75;;;15.91;36.09
36630;BME280;36256;42.154;23.002;2023-02-18T14:32:52;97666.91;;;15.83;36.33
36630;BME280;36256;42.154;23.002;2023-02-18T14:38:22;97669.09;;;15.88;36.49
36630;BME280;36256;42.154;23.002;2023-02-18T14:43:52;97670.63;;;15.89;37.37
36630;BME280;36256;42.154;23.002;2023-02-18T14:46:44;97671.31;;;15.84;39.23
36630;BME280;36256;42.154;23.002;2023-02-18T14:51:54;97671.66;;;15.77;38.44
36630;BME280;36256;42.154;23.002;2023-02-18T14:54:24;97669.78;;;15.73;40.05
36630;BME280;36256;42.154;23.002;2023-02-18T14:56:57;97673.59;;;15.61;40.71
36630;BME280;36256;42.154;23.002;2023-02-18T14:59:27;97665.16;;;15.52;41.11
36630;BME280;36256;42.154;23.002;2023-02-18T15:01:55;97665.84;;;15.47;42.17
36630;BME280;36256;42.154;23.002;2023-02-18T15:04:24;97665.53;;;15.27;42.07
36630;BME280;36256;42.154;23.002;2023-02-18T15:07:02;97674.53;;;15.17;41.93
36630;BME280;36256;42.154;23.002;2023-02-18T15:09:29;97665.78;;;15.06;42.21
36630;BME280;36256;42.154;23.002;2023-02-18T15:12:00;97666.44;;;15.01;41.90
36630;BME280;36256;42.154;23.002;2023-02-18T15:14:36;97659.22;;;14.90;42.51
36630;BME280;36256;42.154;23.002;2023-02-18T15:17:05;97671.00;;;14.89;43.13
36630;BME280;36256;42.154;23.002;2023-02-18T15:19:38;97674.94;;;14.82;43.97
36630;BME280;36256;42.154;23.002;2023-02-18T15:22:16;97666.63;;;14.70;44.16
36630;BME280;36256;42.154;23.002;2023-02-18T15:24:44;97662.25;;;14.60;44.61
36630;BME280;36256;42.154;23.002;2023-02-18T15:27:30;97671.69;;;14.48;44.79
36630;BME280;36256;42.154;23.002;2023-02-18T15:32:52;97663.47;;;13.95;44.96